Time;durP1;ratioP1;P1;durP2;ratioP2;P2;SDS_P1;SDS_P2;PMS_P1;PMS_P2;Temp;Humidity;BMP_temperature;BMP_pressure;BME280_temperature;BME280_humidity;BME280_pressure;Samples;Min_cycle;Max_cycle;Signal;HPM_P1;HPM_P2
2023/04/22 00:00:10;;;;;;;;;;;;;;;22.38;29.04;97581.97;4979185;28;1317;-78
2023/04/22 00:02:36;;;;;;;;;;;;;;;22.30;29.00;97585.06;4979580;28;1092;-78
2023/04/22 00:05:02;;;;;;;;;;;;;;;22.01;29.10;97590.13;4962880;28;1142;-78
2023/04/22 00:07:27;;;;;;;;;;;;;;;22.04;29.08;97583.53;4963492;28;1989;-78
2023/04/22 00:09:53;;;;;;;;;;;;;;;21.90;29.57;97572.72;4963163;28;1053;-77
2023/04/22 00:12:18;;;;;;;;;;;;;;;21.89;29.43;97566.25;4979804;28;1231;-77
2023/04/22 00:14:44;;;;;;;;;;;;;;;21.93;29.35;97583.13;4995226;28;1011;-78
2023/04/22 00:17:09;;;;;;;;;;;;;;;21.92;29.70;97576.69;4984041;28;1232;-78
2023/04/22 00:19:36;;;;;;;;;;;;;;;21.81;29.58;97577.06;4998635;28;1100;-79
2023/04/22 00:22:01;;;;;;;;;;;;;;;21.90;29.82;97573.50;5000320;28;1097;-78
2023/04/22 00:24:27;;;;;;;;;;;;;;;22.56;28.79;97573.59;4999798;28;934;-78
2023/04/22 00:26:53;;;;;;;;;;;;;;;22.68;28.57;97574.78;4999776;28;1955;-78
2023/04/22 00:29:18;;;;;;;;;;;;;;;22.72;28.58;97581.91;4999580;28;1184;-77
2023/04/22 00:31:44;;;;;;;;;;;;;;;22.34;29.01;97579.28;4999582;28;1143;-78
2023/04/22 00:34:09;;;;;;;;;;;;;;;22.00;29.13;97578.00;5015703;28;1001;-78
2023/04/22 00:36:35;;;;;;;;;;;;;;;21.72;29.60;97579.78;5000142;28;1242;-77
2023/04/22 00:39:01;;;;;;;;;;;;;;;21.71;29.49;97572.53;5002426;28;1231;-79
2023/04/22 00:41:26;;;;;;;;;;;;;;;22.25;28.97;97571.47;5003483;28;1191;-78
2023/04/22 00:43:52;;;;;;;;;;;;;;;22.27;28.63;97574.63;5001817;28;1427;-78
2023/04/22 00:46:18;;;;;;;;;;;;;;;22.14;28.93;97559.75;5002736;28;1906;-78
2023/04/22 00:48:43;;;;;;;;;;;;;;;22.25;28.62;97557.31;4985885;28;1089;-78
2023/04/22 00:51:09;;;;;;;;;;;;;;;22.06;28.55;97561.19;4998729;28;965;-78
2023/04/22 00:53:34;;;;;;;;;;;;;;;21.94;28.37;97567.72;4964464;28;1081;-78
2023/04/22 00:56:00;;;;;;;;;;;;;;;21.59;28.58;97565.63;4959611;29;970;-78
2023/04/22 00:58:26;;;;;;;;;;;;;;;21.88;28.24;97569.56;4926534;29;1153;-77
2023/04/22 01:00:52;;;;;;;;;;;;;;;22.26;28.23;97567.38;4959519;29;1023;-78
2023/04/22 01:03:19;;;;;;;;;;;;;;;22.50;27.87;97581.13;4942838;29;1118;-79
2023/04/22 01:05:46;;;;;;;;;;;;;;;22.59;27.83;97578.38;4943596;29;1915;-78
2023/04/22 01:08:11;;;;;;;;;;;;;;;22.31;27.71;97568.84;4926733;29;1043;-77
2023/04/22 01:10:37;;;;;;;;;;;;;;;21.88;28.38;97569.56;4927885;29;1222;-77
2023/04/22 01:13:03;;;;;;;;;;;;;;;21.70;28.57;97562.44;4942711;29;1017;-77
2023/04/22 01:15:29;;;;;;;;;;;;;;;21.79;28.21;97568.19;4943372;29;1007;-78
2023/04/22 01:17:55;;;;;;;;;;;;;;;22.35;28.19;97570.31;4942625;29;1226;-78
2023/04/22 01:20:20;;;;;;;;;;;;;;;22.56;27.76;97556.59;4958886;29;1031;-78
2023/04/22 01:22:46;;;;;;;;;;;;;;;22.32;28.04;97559.09;4922923;29;1280;-77
2023/04/22 01:25:12;;;;;;;;;;;;;;;22.27;27.76;97562.50;4939880;29;1212;-77
2023/04/22 01:27:37;;;;;;;;;;;;;;;21.82;28.52;97555.97;4907837;29;1950;-79
2023/04/22 01:30:03;;;;;;;;;;;;;;;21.88;28.80;97553.34;4939202;29;1000;-78
2023/04/22 01:32:30;;;;;;;;;;;;;;;21.66;29.05;97558.13;4923027;29;1136;-78
2023/04/22 01:34:56;;;;;;;;;;;;;;;22.30;28.49;97562.38;4939028;29;1036;-78
2023/04/22 01:37:22;;;;;;;;;;;;;;;22.47;28.50;97553.69;4945863;29;1114;-79
2023/04/22 01:39:47;;;;;;;;;;;;;;;22.59;28.08;97556.47;4958008;29;1020;-78
2023/04/22 01:42:13;;;;;;;;;;;;;;;21.84;28.91;97556.28;4942635;29;1226;-77
2023/04/22 01:44:39;;;;;;;;;;;;;;;22.00;28.64;97554.53;4958313;29;966;-78
2023/04/22 01:47:05;;;;;;;;;;;;;;;21.80;29.08;97564.13;4958948;29;1978;-78
2023/04/22 01:49:30;;;;;;;;;;;;;;;22.17;28.91;97558.81;4958498;29;1014;-78
2023/04/22 01:51:59;;;;;;;;;;;;;;;22.52;28.56;97559.56;4958505;29;1228;-78
2023/04/22 01:54:24;;;;;;;;;;;;;;;22.46;28.43;97557.78;4972950;28;1016;-77
2023/04/22 01:56:51;;;;;;;;;;;;;;;22.18;28.66;97554.75;4977894;28;1207;-77
2023/04/22 01:59:16;;;;;;;;;;;;;;;22.12;28.54;97552.94;4961078;28;1200;-78
2023/04/22 02:01:42;;;;;;;;;;;;;;;21.99;28.62;97553.75;4945612;28;1217;-78
2023/04/22 02:04:07;;;;;;;;;;;;;;;21.87;28.91;97556.66;4976702;28;1275;-78
2023/04/22 02:06:33;;;;;;;;;;;;;;;21.80;29.06;97552.78;4960579;28;1946;-77
2023/04/22 02:08:58;;;;;;;;;;;;;;;21.73;29.17;97549.41;4965458;28;1221;-78
2023/04/22 02:11:24;;;;;;;;;;;;;;;21.92;28.95;97553.22;4996830;28;1548;-78
2023/04/22 02:13:50;;;;;;;;;;;;;;;21.64;29.52;97554.97;4996348;28;957;-77
2023/04/22 02:16:15;;;;;;;;;;;;;;;22.01;29.39;97556.13;4980794;28;1230;-77
2023/04/22 02:18:41;;;;;;;;;;;;;;;22.23;29.04;97562.66;4995769;28;967;-78
2023/04/22 02:21:07;;;;;;;;;;;;;;;22.44;28.55;97561.09;4980795;28;1129;-78
2023/04/22 02:23:32;;;;;;;;;;;;;;;22.16;28.78;97562.09;4979700;28;972;-79
2023/04/22 02:25:58;;;;;;;;;;;;;;;22.04;29.01;97567.34;4980511;28;1946;-78
2023/04/22 02:28:23;;;;;;;;;;;;;;;21.86;28.88;97558.66;4995592;28;999;-78
2023/04/22 02:30:49;;;;;;;;;;;;;;;21.61;29.38;97562.38;4980702;28;1325;-76
2023/04/22 02:33:15;;;;;;;;;;;;;;;22.31;28.68;97557.50;4980124;28;1196;-78
2023/04/22 02:35:40;;;;;;;;;;;;;;;22.32;28.87;97557.03;4980652;28;1067;-78
2023/04/22 02:38:06;;;;;;;;;;;;;;;22.35;28.77;97564.63;4953412;28;1182;-78
2023/04/22 02:40:32;;;;;;;;;;;;;;;22.12;28.62;97556.56;4929223;28;1153;-78
2023/04/22 02:42:57;;;;;;;;;;;;;;;21.80;29.32;97555.63;4944680;28;954;-77
2023/04/22 02:45:23;;;;;;;;;;;;;;;21.84;28.97;97553.47;4944649;28;1158;-78
2023/04/22 02:47:48;;;;;;;;;;;;;;;21.74;29.22;97548.97;4944746;28;1981;-77
2023/04/22 02:50:14;;;;;;;;;;;;;;;21.59;29.72;97559.19;4938090;29;1228;-79
2023/04/22 02:52:39;;;;;;;;;;;;;;;21.68;29.16;97556.44;4922645;29;1294;-78
2023/04/22 02:55:05;;;;;;;;;;;;;;;21.85;28.97;97566.38;4922121;29;1330;-79
2023/04/22 02:57:31;;;;;;;;;;;;;;;21.50;29.67;97564.75;4903731;29;1213;-78
2023/04/22 02:59:57;;;;;;;;;;;;;;;21.50;29.52;97568.38;4865882;29;1237;-76
2023/04/22 03:02:23;;;;;;;;;;;;;;;22.15;28.86;97566.19;4881999;29;1217;-76
2023/04/22 03:05:08;;;;;;;;;;;;;;;22.35;28.72;97558.97;4868032;29;1260;-79
2023/04/22 03:07:34;;;;;;;;;;;;;;;22.73;28.00;97562.84;4866225;29;1978;-78
2023/04/22 03:10:00;;;;;;;;;;;;;;;22.25;28.49;97557.31;4897741;29;1114;-78
2023/04/22 03:12:26;;;;;;;;;;;;;;;22.04;28.44;97563.72;4878461;29;1109;-78
2023/04/22 03:14:52;;;;;;;;;;;;;;;22.08;28.40;97555.88;4862327;29;1277;-79
2023/04/22 03:17:19;;;;;;;;;;;;;;;22.19;28.62;97567.66;4847670;29;1438;-77
2023/04/22 03:19:45;;;;;;;;;;;;;;;22.30;28.35;97570.09;4862734;29;1252;-78
2023/04/22 03:22:12;;;;;;;;;;;;;;;22.39;28.32;97567.34;4895220;29;1335;-78
2023/04/22 03:24:38;;;;;;;;;;;;;;;22.41;28.21;97558.38;4865634;29;1122;-77
2023/04/22 03:27:06;;;;;;;;;;;;;;;21.87;28.94;97562.31;4896824;29;1911;-78
2023/04/22 03:29:31;;;;;;;;;;;;;;;21.54;29.38;97562.59;4880742;29;1312;-79
2023/04/22 03:31:57;;;;;;;;;;;;;;;21.63;29.12;97571.19;4916018;29;1137;-78
2023/04/22 03:34:23;;;;;;;;;;;;;;;21.93;28.86;97569.75;4933692;28;1152;-77
2023/04/22 03:36:49;;;;;;;;;;;;;;;21.87;28.75;97567.97;4961064;28;1124;-78
2023/04/22 03:39:14;;;;;;;;;;;;;;;22.00;29.13;97580.03;4992640;28;1294;-78
2023/04/22 03:41:42;;;;;;;;;;;;;;;22.57;28.24;97581.63;5008812;28;1221;-78
2023/04/22 03:44:08;;;;;;;;;;;;;;;22.50;28.46;97575.47;4979046;28;1205;-78
2023/04/22 03:46:35;;;;;;;;;;;;;;;22.08;28.50;97578.56;4979980;28;1911;-77
2023/04/22 03:49:29;;;;;;;;;;;;;;;22.20;28.69;97591.13;4944872;29;1041;-78
2023/04/22 03:51:55;;;;;;;;;;;;;;;21.63;29.37;97591.00;4903433;29;1230;-79
2023/04/22 03:54:23;;;;;;;;;;;;;;;21.51;29.41;97591.81;4872863;29;1288;-79
2023/04/22 03:56:51;;;;;;;;;;;;;;;21.73;29.30;97598.34;4919094;29;936;-78
2023/04/22 03:59:18;;;;;;;;;;;;;;;21.59;29.36;97604.47;4887218;29;1576;-78
2023/04/22 04:01:44;;;;;;;;;;;;;;;21.46;29.72;97607.34;4903213;29;1118;-77
2023/04/22 04:04:10;;;;;;;;;;;;;;;22.28;28.81;97610.25;4902270;29;944;-78
2023/04/22 04:06:46;;;;;;;;;;;;;;;22.60;28.17;97608.28;4919113;29;1980;-78
2023/04/22 04:09:11;;;;;;;;;;;;;;;22.58;28.15;97610.78;4886568;29;1241;-78
2023/04/22 04:11:37;;;;;;;;;;;;;;;22.15;28.48;97615.16;4917802;29;1197;-78
2023/04/22 04:14:03;;;;;;;;;;;;;;;21.79;28.93;97619.19;4868518;29;1150;-78
2023/04/22 04:16:40;;;;;;;;;;;;;;;21.65;29.11;97625.31;4870304;29;1127;-78
2023/04/22 04:19:11;;;;;;;;;;;;;;;21.97;28.98;97620.63;4868622;29;1157;-78
2023/04/22 04:21:38;;;;;;;;;;;;;;;22.51;28.42;97623.19;4884262;29;1213;-78
2023/04/22 04:24:05;;;;;;;;;;;;;;;22.54;28.02;97632.84;4905510;29;1496;-76
2023/04/22 04:26:36;;;;;;;;;;;;;;;22.62;27.93;97634.13;4957246;28;2043;-78
2023/04/22 04:29:08;;;;;;;;;;;;;;;21.91;28.74;97636.59;4983022;28;1166;-79
2023/04/22 04:31:37;;;;;;;;;;;;;;;21.98;28.47;97637.16;4985050;28;1140;-79
2023/04/22 04:34:04;;;;;;;;;;;;;;;21.96;28.75;97645.31;4967848;28;977;-78
2023/04/22 04:36:31;;;;;;;;;;;;;;;22.23;28.91;97647.69;4967872;28;1226;-78
2023/04/22 04:39:07;;;;;;;;;;;;;;;22.45;28.36;97652.59;4973492;28;1848;-79
2023/04/22 04:41:34;;;;;;;;;;;;;;;22.61;28.38;97653.19;4986753;28;1345;-78
2023/04/22 04:44:02;;;;;;;;;;;;;;;22.43;28.17;97660.75;4978701;28;1599;-78
2023/04/22 04:46:33;;;;;;;;;;;;;;;21.84;28.79;97661.09;4964246;28;1910;-78
2023/04/22 04:48:59;;;;;;;;;;;;;;;21.51;29.30;97656.94;4963166;28;1120;-78
2023/04/22 04:51:28;;;;;;;;;;;;;;;21.81;28.72;97664.84;4963649;28;1250;-79
2023/04/22 04:53:57;;;;;;;;;;;;;;;21.83;28.70;97670.84;4962616;28;1137;-78
2023/04/22 04:56:26;;;;;;;;;;;;;;;21.66;29.36;97677.88;4963544;28;1354;-78
2023/04/22 04:58:52;;;;;;;;;;;;;;;21.63;29.57;97681.59;4962668;28;1183;-77
2023/04/22 05:01:22;;;;;;;;;;;;;;;21.87;29.12;97690.56;4963440;28;1350;-78
2023/04/22 05:03:48;;;;;;;;;;;;;;;21.86;29.51;97694.59;4978222;28;1294;-79
2023/04/22 05:06:16;;;;;;;;;;;;;;;22.44;28.93;97690.69;4962973;28;1980;-79
2023/04/22 05:08:46;;;;;;;;;;;;;;;22.38;28.97;97689.69;4962135;28;1214;-76
2023/04/22 05:11:12;;;;;;;;;;;;;;;22.20;28.97;97693.13;4962924;28;1262;-78
2023/04/22 05:13:38;;;;;;;;;;;;;;;22.12;28.96;97692.56;4962067;28;1288;-79
2023/04/22 05:16:05;;;;;;;;;;;;;;;21.97;28.91;97697.13;4982799;28;1296;-78
2023/04/22 05:18:31;;;;;;;;;;;;;;;21.69;29.58;97688.28;4965860;28;1134;-77
2023/04/22 05:20:59;;;;;;;;;;;;;;;21.76;29.28;97688.06;4983434;28;1270;-76
2023/04/22 05:23:25;;;;;;;;;;;;;;;22.27;29.06;97698.56;4965921;28;1172;-77
2023/04/22 05:25:53;;;;;;;;;;;;;;;22.43;28.75;97692.72;4982667;28;1914;-78
2023/04/22 05:28:19;;;;;;;;;;;;;;;22.56;28.47;97698.38;4981524;28;1179;-78
2023/04/22 05:30:50;;;;;;;;;;;;;;;21.99;29.18;97695.41;4983323;28;1285;-78
2023/04/22 05:33:15;;;;;;;;;;;;;;;21.75;29.43;97692.13;4965359;28;1342;-78
2023/04/22 05:35:41;;;;;;;;;;;;;;;21.68;29.33;97698.03;4966076;28;1120;-78
2023/04/22 05:38:07;;;;;;;;;;;;;;;22.00;29.45;97699.03;4975255;28;1123;-78
2023/04/22 05:40:36;;;;;;;;;;;;;;;22.12;29.05;97703.91;4977430;28;1126;-78
2023/04/22 05:43:03;;;;;;;;;;;;;;;22.62;28.53;97707.88;4977090;28;1252;-77
2023/04/22 05:45:29;;;;;;;;;;;;;;;22.34;28.84;97710.44;4993959;28;1119;-78
2023/04/22 05:47:54;;;;;;;;;;;;;;;22.25;28.56;97710.34;4961256;28;1911;-78
2023/04/22 05:50:21;;;;;;;;;;;;;;;21.91;28.90;97713.06;4977502;28;1211;-78
2023/04/22 05:52:56;;;;;;;;;;;;;;;21.72;28.90;97715.69;4957731;29;1124;-76
2023/04/22 05:55:21;;;;;;;;;;;;;;;22.14;28.61;97718.44;4957666;29;982;-78
2023/04/22 05:57:47;;;;;;;;;;;;;;;21.87;29.02;97727.38;4958232;29;1021;-78
2023/04/22 06:00:33;;;;;;;;;;;;;;;21.84;29.27;97717.72;4942259;29;1149;-77
2023/04/22 06:03:15;;;;;;;;;;;;;;;22.36;28.95;97736.28;4941289;29;1079;-77
2023/04/22 06:05:43;;;;;;;;;;;;;;;22.43;28.98;97734.44;4942092;29;1906;-77
2023/04/22 06:08:08;;;;;;;;;;;;;;;22.52;28.87;97737.38;4941691;29;1102;-78
2023/04/22 06:10:34;;;;;;;;;;;;;;;22.04;29.35;97742.19;4942166;29;1205;-78
2023/04/22 06:13:00;;;;;;;;;;;;;;;22.23;28.87;97749.69;4941716;29;1132;-78
2023/04/22 06:15:25;;;;;;;;;;;;;;;21.90;29.08;97743.44;4941911;29;1145;-79
2023/04/22 06:17:52;;;;;;;;;;;;;;;21.87;29.37;97754.91;4942003;29;1101;-78
2023/04/22 06:20:17;;;;;;;;;;;;;;;21.81;29.33;97746.97;4910258;29;1237;-77
2023/04/22 06:22:43;;;;;;;;;;;;;;;22.04;29.09;97747.88;4958538;28;1256;-78
2023/04/22 06:25:09;;;;;;;;;;;;;;;21.78;29.62;97750.69;4957623;29;930;-78
2023/04/22 06:27:34;;;;;;;;;;;;;;;21.70;29.90;97752.16;4942256;29;1903;-77
2023/04/22 06:30:00;;;;;;;;;;;;;;;21.69;29.92;97761.91;4958199;28;1062;-77
2023/04/22 06:32:28;;;;;;;;;;;;;;;22.36;28.90;97747.63;4981698;28;1118;-79
2023/04/22 06:34:53;;;;;;;;;;;;;;;22.36;28.85;97758.97;4980906;28;1114;-79
2023/04/22 06:37:19;;;;;;;;;;;;;;;22.57;28.67;97754.59;4987526;28;1270;-76
2023/04/22 06:39:45;;;;;;;;;;;;;;;22.51;28.35;97752.81;5000503;28;1274;-78
2023/04/22 06:42:29;;;;;;;;;;;;;;;22.19;28.66;97751.84;5018478;28;872;-78
2023/04/22 06:45:13;;;;;;;;;;;;;;;21.98;28.92;97761.03;5003122;28;955;-77
2023/04/22 06:47:52;;;;;;;;;;;;;;;21.92;29.01;97762.84;5000070;28;1926;-77
2023/04/22 06:50:22;;;;;;;;;;;;;;;21.81;29.57;97769.63;5000985;28;1336;-78
2023/04/22 06:52:53;;;;;;;;;;;;;;;22.34;29.08;97772.81;5015715;28;1131;-78
2023/04/22 06:55:19;;;;;;;;;;;;;;;22.79;28.20;97768.84;5000137;28;1255;-77
2023/04/22 06:57:44;;;;;;;;;;;;;;;22.59;28.47;97776.84;4983951;28;1108;-78
2023/04/22 07:00:10;;;;;;;;;;;;;;;22.42;28.53;97769.72;4976127;28;994;-77
2023/04/22 07:02:38;;;;;;;;;;;;;;;22.06;28.92;97782.19;4976431;28;1194;-78
2023/04/22 07:05:04;;;;;;;;;;;;;;;21.81;29.18;97785.81;4959799;28;1183;-77
2023/04/22 07:07:30;;;;;;;;;;;;;;;21.54;29.53;97789.84;4941234;29;1887;-77
2023/04/22 07:09:55;;;;;;;;;;;;;;;21.90;29.29;97785.16;4924642;29;993;-78
2023/04/22 07:12:25;;;;;;;;;;;;;;;21.70;29.37;97786.13;4926552;29;1836;-77
2023/04/22 07:14:51;;;;;;;;;;;;;;;21.68;29.75;97782.97;4930812;28;1299;-79
2023/04/22 07:17:20;;;;;;;;;;;;;;;21.81;29.39;97788.63;4976327;28;1509;-78
2023/04/22 07:19:46;;;;;;;;;;;;;;;22.34;29.06;97789.03;4943123;28;1446;-78
2023/04/22 07:22:11;;;;;;;;;;;;;;;22.52;28.37;97786.38;4956264;28;1469;-78
2023/04/22 07:24:38;;;;;;;;;;;;;;;22.38;28.62;97788.88;4958703;28;1392;-78
2023/04/22 07:27:03;;;;;;;;;;;;;;;22.31;28.88;97802.06;4976100;28;1903;-78
2023/04/22 07:29:29;;;;;;;;;;;;;;;22.02;28.97;97804.19;4976434;28;1428;-79
2023/04/22 07:31:54;;;;;;;;;;;;;;;21.87;29.08;97805.91;5008761;28;996;-78
2023/04/22 07:34:20;;;;;;;;;;;;;;;21.78;29.20;97810.19;4998690;28;1048;-79
2023/04/22 07:36:46;;;;;;;;;;;;;;;21.68;29.46;97811.28;5014888;28;1949;-79
2023/04/22 07:39:11;;;;;;;;;;;;;;;21.88;29.17;97813.13;4956433;29;1687;-76
2023/04/22 07:41:37;;;;;;;;;;;;;;;22.24;29.35;97818.50;4937386;29;1550;-79
2023/04/22 07:44:02;;;;;;;;;;;;;;;22.59;28.68;97816.56;4917788;29;994;-79
2023/04/22 07:46:28;;;;;;;;;;;;;;;22.69;28.41;97815.41;4903159;29;1907;-79
2023/04/22 07:48:53;;;;;;;;;;;;;;;22.36;28.63;97809.19;4902370;29;1216;-79
2023/04/22 07:51:19;;;;;;;;;;;;;;;21.85;29.22;97815.63;4902810;29;1016;-78
2023/04/22 07:53:44;;;;;;;;;;;;;;;21.91;29.09;97813.00;4902806;29;1214;-78
2023/04/22 07:56:10;;;;;;;;;;;;;;;21.89;29.34;97821.19;4902982;29;1013;-79
2023/04/22 07:58:35;;;;;;;;;;;;;;;21.73;29.53;97824.09;4886101;29;1090;-78
2023/04/22 08:01:01;;;;;;;;;;;;;;;22.00;29.38;97818.00;4865925;29;1233;-78
2023/04/22 08:03:26;;;;;;;;;;;;;;;22.66;28.69;97809.84;4882120;29;1020;-78
2023/04/22 08:05:52;;;;;;;;;;;;;;;22.86;28.09;97819.66;4885232;29;1908;-78
2023/04/22 08:08:17;;;;;;;;;;;;;;;22.40;28.72;97811.94;4899606;29;1117;-79
2023/04/22 08:10:43;;;;;;;;;;;;;;;21.98;29.14;97823.34;4911659;29;1026;-78
2023/04/22 08:13:09;;;;;;;;;;;;;;;21.96;28.95;97823.00;4921628;29;1112;-79
2023/04/22 08:15:34;;;;;;;;;;;;;;;21.79;29.54;97823.09;4920162;29;1053;-78
2023/04/22 08:17:59;;;;;;;;;;;;;;;21.79;29.20;97817.41;4940540;29;1365;-78
2023/04/22 08:20:25;;;;;;;;;;;;;;;21.83;29.15;97820.94;4956711;29;1013;-78
2023/04/22 08:22:56;;;;;;;;;;;;;;;21.84;29.50;97814.03;4922210;29;1159;-79
2023/04/22 08:25:21;;;;;;;;;;;;;;;22.00;29.31;97815.97;4905946;29;1192;-78
2023/04/22 08:27:48;;;;;;;;;;;;;;;21.94;29.54;97817.00;4921892;29;1990;-79
2023/04/22 08:30:13;;;;;;;;;;;;;;;21.70;29.81;97825.78;4909294;29;1191;-78
2023/04/22 08:32:39;;;;;;;;;;;;;;;22.15;29.41;97822.03;4939666;29;1247;-78
2023/04/22 08:35:04;;;;;;;;;;;;;;;22.58;28.89;97809.28;4943134;29;1136;-78
2023/04/22 08:37:30;;;;;;;;;;;;;;;22.83;28.47;97814.91;4886861;29;1173;-78
2023/04/22 08:39:55;;;;;;;;;;;;;;;22.22;29.16;97821.78;4886399;29;1229;-79
2023/04/22 08:42:21;;;;;;;;;;;;;;;21.91;29.69;97806.56;4902919;29;1026;-78
2023/04/22 08:44:47;;;;;;;;;;;;;;;21.59;30.12;97811.94;4889557;29;1556;-78
2023/04/22 08:47:15;;;;;;;;;;;;;;;21.87;29.72;97820.06;4905688;29;1907;-78
2023/04/22 08:49:41;;;;;;;;;;;;;;;22.15;29.41;97818.41;4904844;29;1434;-78
2023/04/22 08:52:08;;;;;;;;;;;;;;;22.52;28.73;97799.75;4905665;29;2072;-78
2023/04/22 08:54:36;;;;;;;;;;;;;;;22.64;28.54;97807.47;4966173;28;1337;-79
2023/04/22 08:57:01;;;;;;;;;;;;;;;22.52;28.54;97805.44;4960417;28;1412;-79
2023/04/22 08:59:27;;;;;;;;;;;;;;;22.24;28.85;97807.97;4961633;28;2081;-78
2023/04/22 09:01:53;;;;;;;;;;;;;;;21.68;29.88;97813.34;4946855;28;1468;-75
2023/04/22 09:04:18;;;;;;;;;;;;;;;22.00;29.12;97809.50;4962113;28;885;-80
2023/04/22 09:06:44;;;;;;;;;;;;;;;21.86;29.17;97807.91;4940083;29;1903;-80
2023/04/22 09:09:09;;;;;;;;;;;;;;;22.27;29.30;97815.53;4923317;29;1228;-80
2023/04/22 09:11:35;;;;;;;;;;;;;;;22.75;28.62;97810.72;4939666;29;1868;-78
2023/04/22 09:14:01;;;;;;;;;;;;;;;22.72;28.25;97805.97;4914537;28;1120;-80
2023/04/22 09:16:29;;;;;;;;;;;;;;;22.54;28.67;97803.75;4959872;29;1404;-79
2023/04/22 09:18:55;;;;;;;;;;;;;;;22.23;29.07;97806.38;4939111;29;1158;-79
2023/04/22 09:21:20;;;;;;;;;;;;;;;21.86;29.38;97807.91;4939943;29;989;-79
2023/04/22 09:23:50;;;;;;;;;;;;;;;21.67;29.56;97809.72;4923151;29;1320;-78
2023/04/22 09:26:24;;;;;;;;;;;;;;;21.67;29.72;97815.38;4908023;29;1880;-78
2023/04/22 09:28:54;;;;;;;;;;;;;;;21.72;29.51;97817.66;4938924;29;993;-79
2023/04/22 09:31:19;;;;;;;;;;;;;;;22.25;29.33;97798.22;4908453;29;1192;-79
2023/04/22 09:33:52;;;;;;;;;;;;;;;22.56;28.66;97800.44;4923216;29;1074;-79
2023/04/22 09:36:21;;;;;;;;;;;;;;;22.95;28.16;97799.13;4923952;29;1115;-79
2023/04/22 09:38:53;;;;;;;;;;;;;;;22.73;28.15;97801.88;4958795;28;1287;-79
2023/04/22 09:41:25;;;;;;;;;;;;;;;22.32;28.94;97809.31;4978083;28;1029;-79
2023/04/22 09:43:50;;;;;;;;;;;;;;;22.03;29.16;97802.97;4961569;28;1035;-79
2023/04/22 09:46:16;;;;;;;;;;;;;;;21.88;29.54;97815.97;4978219;28;1993;-78
2023/04/22 09:48:42;;;;;;;;;;;;;;;21.85;29.44;97801.44;4980381;28;1079;-80
2023/04/22 09:51:15;;;;;;;;;;;;;;;21.85;29.73;97809.94;5017966;28;965;-79
2023/04/22 09:53:42;;;;;;;;;;;;;;;21.70;29.92;97813.66;5016852;28;1021;-79
2023/04/22 09:56:07;;;;;;;;;;;;;;;21.57;29.88;97803.13;5001718;28;940;-79
2023/04/22 09:58:33;;;;;;;;;;;;;;;21.76;29.66;97807.00;5000232;28;876;-79
2023/04/22 10:00:58;;;;;;;;;;;;;;;22.15;28.77;97815.56;5018690;28;1012;-79
2023/04/22 10:03:24;;;;;;;;;;;;;;;22.57;28.55;97816.19;5017963;28;918;-79
2023/04/22 10:05:50;;;;;;;;;;;;;;;22.31;28.74;97813.41;5018467;28;1902;-79
2023/04/22 10:08:15;;;;;;;;;;;;;;;22.28;28.96;97820.00;4995715;28;1023;-79
2023/04/22 10:10:41;;;;;;;;;;;;;;;21.98;28.84;97817.69;4947813;28;1055;-78
2023/04/22 10:13:06;;;;;;;;;;;;;;;21.93;29.01;97821.06;4979661;28;1026;-78
2023/04/22 10:15:33;;;;;;;;;;;;;;;21.76;29.20;97824.00;4987803;28;2301;-78
2023/04/22 10:17:58;;;;;;;;;;;;;;;21.95;28.75;97824.25;4957176;29;946;-79
2023/04/22 10:20:24;;;;;;;;;;;;;;;21.94;28.47;97817.00;4941336;29;1029;-79
2023/04/22 10:22:51;;;;;;;;;;;;;;;22.21;28.45;97823.03;4909614;29;1159;-76
2023/04/22 10:25:24;;;;;;;;;;;;;;;22.14;28.61;97820.44;4957049;28;1038;-78
2023/04/22 10:27:53;;;;;;;;;;;;;;;22.23;28.34;97817.72;4956343;29;1914;-78
2023/04/22 10:30:31;;;;;;;;;;;;;;;22.23;28.10;97823.41;4941576;29;975;-79
2023/04/22 10:33:15;;;;;;;;;;;;;;;21.92;28.67;97813.84;4940684;29;974;-77
2023/04/22 10:35:41;;;;;;;;;;;;;;;21.96;28.34;97808.81;4961261;28;1475;-78
2023/04/22 10:38:07;;;;;;;;;;;;;;;21.41;29.33;97808.06;4962510;28;1594;-79
2023/04/22 10:40:32;;;;;;;;;;;;;;;22.15;28.39;97810.69;4974161;28;1352;-79
2023/04/22 10:43:02;;;;;;;;;;;;;;;22.19;28.22;97822.69;5004916;28;1495;-78
2023/04/22 10:45:27;;;;;;;;;;;;;;;22.39;27.94;97802.63;5003287;28;1576;-79
2023/04/22 10:47:53;;;;;;;;;;;;;;;22.19;28.43;97819.88;4990230;28;1977;-79
2023/04/22 10:50:22;;;;;;;;;;;;;;;21.96;28.88;97814.50;5017361;28;967;-79
2023/04/22 10:52:59;;;;;;;;;;;;;;;21.69;29.10;97818.53;5016244;28;957;-78
2023/04/22 10:55:25;;;;;;;;;;;;;;;21.83;28.81;97809.63;5016247;28;986;-79
2023/04/22 10:57:50;;;;;;;;;;;;;;;21.92;28.50;97808.16;5017291;28;942;-78
2023/04/22 11:00:27;;;;;;;;;;;;;;;22.65;27.73;97803.38;5015864;28;1003;-78
2023/04/22 11:02:52;;;;;;;;;;;;;;;22.53;27.70;97807.00;4976083;28;1056;-78
2023/04/22 11:05:18;;;;;;;;;;;;;;;22.25;28.12;97809.56;4975994;28;1211;-78
2023/04/22 11:07:44;;;;;;;;;;;;;;;21.86;28.36;97802.25;4960207;28;1915;-79
2023/04/22 11:10:14;;;;;;;;;;;;;;;21.95;28.37;97802.38;4943895;28;1000;-79
2023/04/22 11:12:43;;;;;;;;;;;;;;;21.88;28.30;97807.47;4937166;29;1008;-78
2023/04/22 11:15:15;;;;;;;;;;;;;;;22.28;28.22;97810.69;4936962;29;1100;-78
2023/04/22 11:17:41;;;;;;;;;;;;;;;22.34;27.96;97812.50;4937332;29;931;-79
2023/04/22 11:20:07;;;;;;;;;;;;;;;22.22;27.94;97810.44;4921694;29;990;-78
2023/04/22 11:22:36;;;;;;;;;;;;;;;22.22;27.74;97803.97;4937375;29;1076;-79
2023/04/22 11:25:03;;;;;;;;;;;;;;;21.67;28.75;97809.72;4920969;29;1028;-78
2023/04/22 11:27:29;;;;;;;;;;;;;;;21.89;28.25;97815.50;4921996;29;1902;-78
2023/04/22 11:30:11;;;;;;;;;;;;;;;21.75;28.24;97810.28;4921687;29;968;-79
2023/04/22 11:32:37;;;;;;;;;;;;;;;21.59;28.53;97816.81;4936813;29;1052;-79
2023/04/22 11:35:07;;;;;;;;;;;;;;;21.73;28.53;97807.91;4959035;28;1273;-78
2023/04/22 11:37:39;;;;;;;;;;;;;;;22.34;27.53;97801.16;4960755;28;1394;-79
2023/04/22 11:40:05;;;;;;;;;;;;;;;22.27;27.79;97809.88;4963187;28;931;-79
2023/04/22 11:42:30;;;;;;;;;;;;;;;22.21;27.81;97808.88;4963455;28;1008;-78
2023/04/22 11:44:56;;;;;;;;;;;;;;;21.99;27.79;97802.28;4947048;28;1065;-79
2023/04/22 11:47:21;;;;;;;;;;;;;;;21.90;28.02;97810.63;4963064;28;1887;-79
2023/04/22 11:49:56;;;;;;;;;;;;;;;21.83;28.36;97806.78;4970330;28;1028;-79
2023/04/22 11:52:21;;;;;;;;;;;;;;;21.96;27.92;97803.16;4982443;28;1055;-78
2023/04/22 11:54:47;;;;;;;;;;;;;;;22.34;27.47;97803.19;4982279;28;1008;-76
2023/04/22 11:57:15;;;;;;;;;;;;;;;22.38;27.23;97805.91;4982974;28;958;-79
2023/04/22 11:59:41;;;;;;;;;;;;;;;22.46;27.46;97799.56;4982157;28;1030;-78
2023/04/22 12:02:06;;;;;;;;;;;;;;;22.40;27.34;97803.41;4980102;28;1559;-78
2023/04/22 12:04:36;;;;;;;;;;;;;;;22.03;27.55;97811.47;5017521;28;1453;-79
2023/04/22 12:07:02;;;;;;;;;;;;;;;21.94;27.64;97805.66;5019446;28;1898;-79
2023/04/22 12:09:27;;;;;;;;;;;;;;;22.44;27.37;97798.44;5019978;28;962;-78
2023/04/22 12:11:53;;;;;;;;;;;;;;;22.41;27.02;97797.28;5020432;28;935;-79
2023/04/22 12:14:18;;;;;;;;;;;;;;;22.28;27.55;97805.81;5020184;28;887;-79
2023/04/22 12:16:44;;;;;;;;;;;;;;;22.31;27.23;97802.06;5020186;28;990;-79
2023/04/22 12:19:10;;;;;;;;;;;;;;;21.82;27.79;97808.03;5018735;28;920;-79
2023/04/22 12:21:35;;;;;;;;;;;;;;;22.01;27.36;97811.09;5020064;28;1081;-79
2023/04/22 12:24:04;;;;;;;;;;;;;;;21.94;27.52;97805.66;5018755;28;961;-79
2023/04/22 12:26:30;;;;;;;;;;;;;;;21.65;28.13;97817.06;5019082;28;1898;-78
2023/04/22 12:28:56;;;;;;;;;;;;;;;21.75;28.12;97816.72;5018350;28;1018;-78
2023/04/22 12:31:22;;;;;;;;;;;;;;;22.39;27.22;97808.31;5019163;28;990;-79
2023/04/22 12:33:47;;;;;;;;;;;;;;;22.26;27.23;97811.13;5018270;28;1496;-78
2023/04/22 12:36:13;;;;;;;;;;;;;;;22.53;26.72;97801.34;5013023;28;1463;-79
2023/04/22 12:38:38;;;;;;;;;;;;;;;22.28;26.95;97807.88;5017556;28;1459;-78
2023/04/22 12:41:04;;;;;;;;;;;;;;;21.80;27.97;97807.69;5018446;28;1471;-77
2023/04/22 12:43:32;;;;;;;;;;;;;;;21.61;27.86;97805.06;5001751;28;1543;-78
2023/04/22 12:45:57;;;;;;;;;;;;;;;21.85;27.90;97806.31;5002623;28;1902;-79
2023/04/22 12:48:23;;;;;;;;;;;;;;;22.49;26.82;97800.69;5017627;28;977;-78
2023/04/22 12:50:48;;;;;;;;;;;;;;;22.48;27.05;97793.41;5018214;28;986;-79
2023/04/22 12:53:14;;;;;;;;;;;;;;;22.33;27.11;97793.91;5001754;28;1191;-79
2023/04/22 12:55:40;;;;;;;;;;;;;;;22.11;27.06;97807.16;5018974;28;1242;-79